sensor_id;sensor_type;location;lat;lon;timestamp;P1;durP1;ratioP1;P2;durP2;ratioP2
8488;SDS011;4281;45.772;12.852;2023-02-22T00:00:41;91.33;;;68.73;;
8488;SDS011;4281;45.772;12.852;2023-02-22T00:03:10;92.00;;;67.87;;
8488;SDS011;4281;45.772;12.852;2023-02-22T00:05:40;89.83;;;67.87;;
8488;SDS011;4281;45.772;12.852;2023-02-22T00:08:13;86.00;;;65.93;;
8488;SDS011;4281;45.772;12.852;2023-02-22T00:10:43;85.80;;;65.37;;
8488;SDS011;4281;45.772;12.852;2023-02-22T00:13:12;88.47;;;66.17;;
8488;SDS011;4281;45.772;12.852;2023-02-22T00:15:41;88.90;;;66.40;;
8488;SDS011;4281;45.772;12.852;2023-02-22T00:18:11;88.80;;;64.73;;
8488;SDS011;4281;45.772;12.852;2023-02-22T00:20:39;85.53;;;62.77;;
8488;SDS011;4281;45.772;12.852;2023-02-22T00:23:11;83.43;;;61.37;;
8488;SDS011;4281;45.772;12.852;2023-02-22T00:25:40;81.30;;;61.17;;
8488;SDS011;4281;45.772;12.852;2023-02-22T00:28:10;86.53;;;62.20;;
8488;SDS011;4281;45.772;12.852;2023-02-22T00:30:38;80.47;;;60.40;;
8488;SDS011;4281;45.772;12.852;2023-02-22T00:33:09;83.73;;;62.47;;
8488;SDS011;4281;45.772;12.852;2023-02-22T00:35:38;83.77;;;63.07;;
8488;SDS011;4281;45.772;12.852;2023-02-22T00:38:06;85.50;;;63.17;;
8488;SDS011;4281;45.772;12.852;2023-02-22T00:40:34;82.40;;;59.73;;
8488;SDS011;4281;45.772;12.852;2023-02-22T00:43:02;82.73;;;59.93;;
8488;SDS011;4281;45.772;12.852;2023-02-22T00:48:07;86.40;;;62.60;;
8488;SDS011;4281;45.772;12.852;2023-02-22T00:50:35;82.07;;;61.27;;
8488;SDS011;4281;45.772;12.852;2023-02-22T00:53:04;81.50;;;61.03;;
8488;SDS011;4281;45.772;12.852;2023-02-22T00:55:33;82.20;;;59.80;;
8488;SDS011;4281;45.772;12.852;2023-02-22T00:58:02;85.37;;;61.13;;
8488;SDS011;4281;45.772;12.852;2023-02-22T01:00:31;81.90;;;59.80;;
8488;SDS011;4281;45.772;12.852;2023-02-22T01:03:00;83.67;;;62.07;;
8488;SDS011;4281;45.772;12.852;2023-02-22T01:05:29;79.07;;;58.77;;
8488;SDS011;4281;45.772;12.852;2023-02-22T01:07:59;83.10;;;60.73;;
8488;SDS011;4281;45.772;12.852;2023-02-22T01:10:28;80.10;;;59.90;;
8488;SDS011;4281;45.772;12.852;2023-02-22T01:12:57;82.17;;;60.40;;
8488;SDS011;4281;45.772;12.852;2023-02-22T01:15:27;81.13;;;61.20;;
8488;SDS011;4281;45.772;12.852;2023-02-22T01:17:57;82.53;;;59.13;;
8488;SDS011;4281;45.772;12.852;2023-02-22T01:20:26;82.10;;;61.97;;
8488;SDS011;4281;45.772;12.852;2023-02-22T01:22:57;81.97;;;64.30;;
8488;SDS011;4281;45.772;12.852;2023-02-22T01:25:26;85.93;;;64.70;;
8488;SDS011;4281;45.772;12.852;2023-02-22T01:27:56;88.43;;;65.83;;
8488;SDS011;4281;45.772;12.852;2023-02-22T01:30:26;85.93;;;64.20;;
8488;SDS011;4281;45.772;12.852;2023-02-22T01:32:55;84.90;;;63.40;;
8488;SDS011;4281;45.772;12.852;2023-02-22T01:35:24;86.83;;;65.87;;
8488;SDS011;4281;45.772;12.852;2023-02-22T01:37:54;91.77;;;67.03;;
8488;SDS011;4281;45.772;12.852;2023-02-22T01:40:25;87.10;;;66.23;;
8488;SDS011;4281;45.772;12.852;2023-02-22T01:42:55;87.30;;;66.00;;
8488;SDS011;4281;45.772;12.852;2023-02-22T01:48:11;86.00;;;61.73;;
8488;SDS011;4281;45.772;12.852;2023-02-22T01:50:42;85.63;;;64.47;;
8488;SDS011;4281;45.772;12.852;2023-02-22T01:53:12;91.40;;;65.80;;
8488;SDS011;4281;45.772;12.852;2023-02-22T01:55:44;89.47;;;66.23;;
8488;SDS011;4281;45.772;12.852;2023-02-22T01:58:13;87.73;;;65.00;;
8488;SDS011;4281;45.772;12.852;2023-02-22T02:00:43;83.43;;;62.37;;
8488;SDS011;4281;45.772;12.852;2023-02-22T02:03:14;83.67;;;64.13;;
8488;SDS011;4281;45.772;12.852;2023-02-22T02:05:45;84.17;;;62.17;;
8488;SDS011;4281;45.772;12.852;2023-02-22T02:08:16;86.60;;;64.53;;
8488;SDS011;4281;45.772;12.852;2023-02-22T02:10:50;89.90;;;67.57;;
8488;SDS011;4281;45.772;12.852;2023-02-22T02:13:20;88.10;;;66.33;;
8488;SDS011;4281;45.772;12.852;2023-02-22T02:15:48;88.47;;;65.80;;
8488;SDS011;4281;45.772;12.852;2023-02-22T02:18:18;89.47;;;66.63;;
8488;SDS011;4281;45.772;12.852;2023-02-22T02:20:48;90.97;;;69.00;;
8488;SDS011;4281;45.772;12.852;2023-02-22T02:23:46;89.83;;;66.20;;
8488;SDS011;4281;45.772;12.852;2023-02-22T02:26:40;90.07;;;67.13;;
8488;SDS011;4281;45.772;12.852;2023-02-22T02:32:27;86.93;;;65.03;;
8488;SDS011;4281;45.772;12.852;2023-02-22T02:35:03;91.50;;;65.43;;
8488;SDS011;4281;45.772;12.852;2023-02-22T02:37:32;86.70;;;64.23;;
8488;SDS011;4281;45.772;12.852;2023-02-22T02:40:07;88.60;;;65.00;;
8488;SDS011;4281;45.772;12.852;2023-02-22T02:42:39;88.10;;;65.23;;
8488;SDS011;4281;45.772;12.852;2023-02-22T02:45:10;84.93;;;63.10;;
8488;SDS011;4281;45.772;12.852;2023-02-22T02:47:43;88.87;;;66.20;;
8488;SDS011;4281;45.772;12.852;2023-02-22T02:50:13;83.67;;;64.53;;
8488;SDS011;4281;45.772;12.852;2023-02-22T02:52:43;91.90;;;67.47;;
8488;SDS011;4281;45.772;12.852;2023-02-22T02:55:12;90.37;;;66.33;;
8488;SDS011;4281;45.772;12.852;2023-02-22T02:57:40;87.27;;;65.00;;
8488;SDS011;4281;45.772;12.852;2023-02-22T03:00:08;89.43;;;65.30;;
8488;SDS011;4281;45.772;12.852;2023-02-22T03:02:53;84.10;;;62.23;;
8488;SDS011;4281;45.772;12.852;2023-02-22T03:05:31;83.70;;;61.03;;
8488;SDS011;4281;45.772;12.852;2023-02-22T03:08:05;82.10;;;62.67;;
8488;SDS011;4281;45.772;12.852;2023-02-22T03:10:43;83.77;;;61.77;;
8488;SDS011;4281;45.772;12.852;2023-02-22T03:13:17;83.97;;;62.07;;
8488;SDS011;4281;45.772;12.852;2023-02-22T03:15:51;76.93;;;57.87;;
8488;SDS011;4281;45.772;12.852;2023-02-22T03:18:26;80.23;;;61.13;;
8488;SDS011;4281;45.772;12.852;2023-02-22T03:20:57;82.50;;;59.27;;
8488;SDS011;4281;45.772;12.852;2023-02-22T03:23:28;81.93;;;59.70;;
8488;SDS011;4281;45.772;12.852;2023-02-22T03:26:00;77.87;;;60.10;;
8488;SDS011;4281;45.772;12.852;2023-02-22T03:28:30;78.37;;;57.87;;
8488;SDS011;4281;45.772;12.852;2023-02-22T03:31:00;77.97;;;57.57;;
8488;SDS011;4281;45.772;12.852;2023-02-22T03:33:33;79.37;;;57.93;;
8488;SDS011;4281;45.772;12.852;2023-02-22T03:36:07;75.33;;;57.70;;
8488;SDS011;4281;45.772;12.852;2023-02-22T03:38:38;77.53;;;58.57;;
8488;SDS011;4281;45.772;12.852;2023-02-22T03:41:06;75.07;;;58.60;;
8488;SDS011;4281;45.772;12.852;2023-02-22T03:43:36;78.20;;;58.37;;
8488;SDS011;4281;45.772;12.852;2023-02-22T03:46:06;78.83;;;58.97;;
8488;SDS011;4281;45.772;12.852;2023-02-22T03:48:38;77.07;;;58.33;;
8488;SDS011;4281;45.772;12.852;2023-02-22T03:51:10;78.47;;;58.97;;
8488;SDS011;4281;45.772;12.852;2023-02-22T03:53:42;78.47;;;57.60;;
8488;SDS011;4281;45.772;12.852;2023-02-22T03:56:12;75.20;;;56.83;;
8488;SDS011;4281;45.772;12.852;2023-02-22T03:58:41;78.60;;;57.17;;
8488;SDS011;4281;45.772;12.852;2023-02-22T04:01:11;74.30;;;55.37;;
8488;SDS011;4281;45.772;12.852;2023-02-22T04:03:41;75.90;;;57.47;;
8488;SDS011;4281;45.772;12.852;2023-02-22T04:06:09;78.37;;;58.20;;
8488;SDS011;4281;45.772;12.852;2023-02-22T04:08:37;84.87;;;62.23;;
8488;SDS011;4281;45.772;12.852;2023-02-22T04:11:04;80.53;;;59.77;;
8488;SDS011;4281;45.772;12.852;2023-02-22T04:13:32;81.97;;;59.70;;
8488;SDS011;4281;45.772;12.852;2023-02-22T04:16:00;79.10;;;59.27;;
8488;SDS011;4281;45.772;12.852;2023-02-22T04:18:28;76.67;;;57.70;;
8488;SDS011;4281;45.772;12.852;2023-02-22T04:20:57;82.30;;;62.23;;
8488;SDS011;4281;45.772;12.852;2023-02-22T04:23:25;77.97;;;60.03;;
8488;SDS011;4281;45.772;12.852;2023-02-22T04:25:53;78.20;;;59.60;;
8488;SDS011;4281;45.772;12.852;2023-02-22T04:28:21;81.33;;;60.50;;
8488;SDS011;4281;45.772;12.852;2023-02-22T04:30:49;77.63;;;58.97;;
8488;SDS011;4281;45.772;12.852;2023-02-22T04:33:17;80.30;;;60.53;;
8488;SDS011;4281;45.772;12.852;2023-02-22T04:35:45;76.80;;;58.73;;
8488;SDS011;4281;45.772;12.852;2023-02-22T04:38:14;81.00;;;59.67;;
8488;SDS011;4281;45.772;12.852;2023-02-22T04:40:42;80.80;;;60.17;;
8488;SDS011;4281;45.772;12.852;2023-02-22T04:43:09;83.50;;;62.27;;
8488;SDS011;4281;45.772;12.852;2023-02-22T04:45:40;83.17;;;61.37;;
8488;SDS011;4281;45.772;12.852;2023-02-22T04:48:17;81.07;;;61.30;;
8488;SDS011;4281;45.772;12.852;2023-02-22T04:50:44;85.37;;;64.47;;
8488;SDS011;4281;45.772;12.852;2023-02-22T04:53:14;87.93;;;63.07;;
8488;SDS011;4281;45.772;12.852;2023-02-22T04:55:42;83.27;;;61.57;;
8488;SDS011;4281;45.772;12.852;2023-02-22T04:58:10;79.90;;;61.03;;
8488;SDS011;4281;45.772;12.852;2023-02-22T05:00:37;81.00;;;63.47;;
8488;SDS011;4281;45.772;12.852;2023-02-22T05:03:05;80.13;;;61.73;;
8488;SDS011;4281;45.772;12.852;2023-02-22T05:05:34;77.53;;;60.33;;
8488;SDS011;4281;45.772;12.852;2023-02-22T05:08:01;77.67;;;59.20;;
8488;SDS011;4281;45.772;12.852;2023-02-22T05:10:31;79.97;;;58.73;;
8488;SDS011;4281;45.772;12.852;2023-02-22T05:12:59;80.10;;;59.17;;
8488;SDS011;4281;45.772;12.852;2023-02-22T05:15:29;77.77;;;58.90;;
8488;SDS011;4281;45.772;12.852;2023-02-22T05:17:57;80.50;;;60.17;;
8488;SDS011;4281;45.772;12.852;2023-02-22T05:20:27;80.10;;;60.70;;
8488;SDS011;4281;45.772;12.852;2023-02-22T05:22:56;78.73;;;58.80;;
8488;SDS011;4281;45.772;12.852;2023-02-22T05:25:24;78.50;;;58.53;;
8488;SDS011;4281;45.772;12.852;2023-02-22T05:27:54;80.20;;;59.23;;
8488;SDS011;4281;45.772;12.852;2023-02-22T05:30:24;79.87;;;60.17;;
8488;SDS011;4281;45.772;12.852;2023-02-22T05:32:53;75.77;;;57.80;;
8488;SDS011;4281;45.772;12.852;2023-02-22T05:35:22;75.93;;;57.30;;
8488;SDS011;4281;45.772;12.852;2023-02-22T05:37:49;77.70;;;59.30;;
8488;SDS011;4281;45.772;12.852;2023-02-22T05:40:18;73.23;;;55.77;;
8488;SDS011;4281;45.772;12.852;2023-02-22T05:42:49;73.87;;;54.60;;
8488;SDS011;4281;45.772;12.852;2023-02-22T05:45:19;75.40;;;55.37;;
8488;SDS011;4281;45.772;12.852;2023-02-22T05:47:48;72.43;;;55.43;;
8488;SDS011;4281;45.772;12.852;2023-02-22T05:50:16;72.57;;;54.70;;
8488;SDS011;4281;45.772;12.852;2023-02-22T05:52:45;70.30;;;53.73;;
8488;SDS011;4281;45.772;12.852;2023-02-22T05:55:14;71.53;;;54.83;;
8488;SDS011;4281;45.772;12.852;2023-02-22T05:57:43;71.10;;;53.63;;
8488;SDS011;4281;45.772;12.852;2023-02-22T06:00:13;73.20;;;54.00;;
8488;SDS011;4281;45.772;12.852;2023-02-22T06:02:44;69.67;;;54.03;;
8488;SDS011;4281;45.772;12.852;2023-02-22T06:05:12;70.63;;;53.87;;
8488;SDS011;4281;45.772;12.852;2023-02-22T06:07:40;68.47;;;51.87;;
8488;SDS011;4281;45.772;12.852;2023-02-22T06:10:08;64.70;;;49.33;;
8488;SDS011;4281;45.772;12.852;2023-02-22T06:12:36;64.57;;;49.60;;
8488;SDS011;4281;45.772;12.852;2023-02-22T06:15:03;63.37;;;47.87;;
8488;SDS011;4281;45.772;12.852;2023-02-22T06:17:32;63.50;;;49.03;;
8488;SDS011;4281;45.772;12.852;2023-02-22T06:20:01;61.00;;;46.87;;
8488;SDS011;4281;45.772;12.852;2023-02-22T06:22:29;60.83;;;46.50;;
8488;SDS011;4281;45.772;12.852;2023-02-22T06:24:57;60.83;;;46.37;;
8488;SDS011;4281;45.772;12.852;2023-02-22T06:27:25;63.57;;;46.90;;
8488;SDS011;4281;45.772;12.852;2023-02-22T06:29:52;63.53;;;49.00;;
8488;SDS011;4281;45.772;12.852;2023-02-22T06:32:20;61.63;;;47.87;;
8488;SDS011;4281;45.772;12.852;2023-02-22T06:34:48;61.40;;;46.00;;
8488;SDS011;4281;45.772;12.852;2023-02-22T06:37:17;62.23;;;48.43;;
8488;SDS011;4281;45.772;12.852;2023-02-22T06:39:45;62.53;;;47.13;;
8488;SDS011;4281;45.772;12.852;2023-02-22T06:42:13;61.80;;;48.47;;
8488;SDS011;4281;45.772;12.852;2023-02-22T06:44:41;62.93;;;47.73;;
8488;SDS011;4281;45.772;12.852;2023-02-22T06:47:09;65.60;;;49.30;;
8488;SDS011;4281;45.772;12.852;2023-02-22T06:49:37;63.87;;;47.70;;
8488;SDS011;4281;45.772;12.852;2023-02-22T06:52:05;60.87;;;47.27;;
8488;SDS011;4281;45.772;12.852;2023-02-22T06:54:35;68.43;;;49.93;;
8488;SDS011;4281;45.772;12.852;2023-02-22T06:57:05;64.90;;;48.20;;
8488;SDS011;4281;45.772;12.852;2023-02-22T06:59:33;64.00;;;48.07;;
8488;SDS011;4281;45.772;12.852;2023-02-22T07:02:01;65.23;;;49.67;;
8488;SDS011;4281;45.772;12.852;2023-02-22T07:04:29;62.80;;;47.37;;
8488;SDS011;4281;45.772;12.852;2023-02-22T07:06:57;61.40;;;47.73;;
8488;SDS011;4281;45.772;12.852;2023-02-22T07:09:25;59.10;;;47.33;;
8488;SDS011;4281;45.772;12.852;2023-02-22T07:11:54;59.90;;;46.17;;
8488;SDS011;4281;45.772;12.852;2023-02-22T07:14:22;62.13;;;48.77;;
8488;SDS011;4281;45.772;12.852;2023-02-22T07:16:50;58.63;;;47.77;;
8488;SDS011;4281;45.772;12.852;2023-02-22T07:19:17;59.53;;;46.57;;
8488;SDS011;4281;45.772;12.852;2023-02-22T07:21:45;58.23;;;46.77;;
8488;SDS011;4281;45.772;12.852;2023-02-22T07:24:14;58.43;;;46.47;;
8488;SDS011;4281;45.772;12.852;2023-02-22T07:26:43;54.70;;;44.37;;
8488;SDS011;4281;45.772;12.852;2023-02-22T07:29:12;54.23;;;44.40;;
8488;SDS011;4281;45.772;12.852;2023-02-22T07:31:40;50.87;;;43.47;;
8488;SDS011;4281;45.772;12.852;2023-02-22T07:34:07;49.73;;;42.57;;
8488;SDS011;4281;45.772;12.852;2023-02-22T07:36:35;49.23;;;42.53;;
8488;SDS011;4281;45.772;12.852;2023-02-22T07:39:03;50.07;;;42.23;;
8488;SDS011;4281;45.772;12.852;2023-02-22T07:41:34;49.93;;;41.37;;
8488;SDS011;4281;45.772;12.852;2023-02-22T07:44:01;45.83;;;39.77;;
8488;SDS011;4281;45.772;12.852;2023-02-22T07:46:31;42.87;;;37.87;;
8488;SDS011;4281;45.772;12.852;2023-02-22T07:48:59;39.50;;;35.23;;
8488;SDS011;4281;45.772;12.852;2023-02-22T07:51:26;39.77;;;35.57;;
8488;SDS011;4281;45.772;12.852;2023-02-22T07:53:54;37.70;;;33.80;;
8488;SDS011;4281;45.772;12.852;2023-02-22T07:56:22;36.37;;;32.60;;
8488;SDS011;4281;45.772;12.852;2023-02-22T07:58:51;34.07;;;30.37;;
8488;SDS011;4281;45.772;12.852;2023-02-22T08:01:18;38.20;;;34.20;;
8488;SDS011;4281;45.772;12.852;2023-02-22T08:03:48;36.70;;;33.10;;
8488;SDS011;4281;45.772;12.852;2023-02-22T08:06:16;36.17;;;32.47;;
8488;SDS011;4281;45.772;12.852;2023-02-22T08:08:44;35.87;;;32.10;;
8488;SDS011;4281;45.772;12.852;2023-02-22T08:11:11;33.30;;;29.87;;
8488;SDS011;4281;45.772;12.852;2023-02-22T08:13:40;34.20;;;30.77;;
8488;SDS011;4281;45.772;12.852;2023-02-22T08:16:07;33.50;;;30.13;;
8488;SDS011;4281;45.772;12.852;2023-02-22T08:18:35;31.20;;;28.00;;
8488;SDS011;4281;45.772;12.852;2023-02-22T08:21:07;32.03;;;28.93;;
8488;SDS011;4281;45.772;12.852;2023-02-22T08:23:35;33.10;;;29.80;;
8488;SDS011;4281;45.772;12.852;2023-02-22T08:26:04;31.80;;;28.67;;
8488;SDS011;4281;45.772;12.852;2023-02-22T08:28:33;31.70;;;28.47;;
8488;SDS011;4281;45.772;12.852;2023-02-22T08:31:01;33.47;;;30.10;;
8488;SDS011;4281;45.772;12.852;2023-02-22T08:33:32;33.17;;;29.83;;
8488;SDS011;4281;45.772;12.852;2023-02-22T08:36:00;35.03;;;31.43;;
8488;SDS011;4281;45.772;12.852;2023-02-22T08:38:30;35.27;;;31.67;;
8488;SDS011;4281;45.772;12.852;2023-02-22T08:40:59;34.20;;;30.57;;
8488;SDS011;4281;45.772;12.852;2023-02-22T08:43:27;34.40;;;30.87;;
8488;SDS011;4281;45.772;12.852;2023-02-22T08:45:55;36.03;;;32.27;;
8488;SDS011;4281;45.772;12.852;2023-02-22T08:48:24;37.67;;;33.63;;
8488;SDS011;4281;45.772;12.852;2023-02-22T08:50:52;36.13;;;32.07;;
8488;SDS011;4281;45.772;12.852;2023-02-22T08:53:20;37.13;;;33.13;;
8488;SDS011;4281;45.772;12.852;2023-02-22T08:55:49;35.90;;;32.00;;
8488;SDS011;4281;45.772;12.852;2023-02-22T08:58:18;38.60;;;33.90;;
8488;SDS011;4281;45.772;12.852;2023-02-22T09:00:46;38.77;;;34.60;;
8488;SDS011;4281;45.772;12.852;2023-02-22T09:03:16;36.17;;;32.20;;
8488;SDS011;4281;45.772;12.852;2023-02-22T09:05:44;41.10;;;35.23;;
8488;SDS011;4281;45.772;12.852;2023-02-22T09:08:12;39.40;;;35.13;;
8488;SDS011;4281;45.772;12.852;2023-02-22T09:10:40;38.00;;;33.47;;
8488;SDS011;4281;45.772;12.852;2023-02-22T09:13:09;39.80;;;34.60;;
8488;SDS011;4281;45.772;12.852;2023-02-22T09:15:37;41.07;;;34.20;;
8488;SDS011;4281;45.772;12.852;2023-02-22T09:18:08;41.17;;;34.13;;
8488;SDS011;4281;45.772;12.852;2023-02-22T09:20:40;39.73;;;33.40;;
8488;SDS011;4281;45.772;12.852;2023-02-22T09:23:08;37.70;;;32.63;;
8488;SDS011;4281;45.772;12.852;2023-02-22T09:25:36;39.43;;;31.43;;
8488;SDS011;4281;45.772;12.852;2023-02-22T09:28:06;40.00;;;31.80;;
8488;SDS011;4281;45.772;12.852;2023-02-22T09:30:38;37.53;;;31.20;;
8488;SDS011;4281;45.772;12.852;2023-02-22T09:33:07;39.40;;;31.57;;
8488;SDS011;4281;45.772;12.852;2023-02-22T09:35:39;37.27;;;29.90;;
8488;SDS011;4281;45.772;12.852;2023-02-22T09:38:12;37.77;;;32.03;;
8488;SDS011;4281;45.772;12.852;2023-02-22T09:40:41;39.97;;;33.00;;
8488;SDS011;4281;45.772;12.852;2023-02-22T09:43:20;39.23;;;32.27;;
8488;SDS011;4281;45.772;12.852;2023-02-22T09:46:00;41.27;;;33.90;;
8488;SDS011;4281;45.772;12.852;2023-02-22T09:48:39;40.83;;;33.50;;
8488;SDS011;4281;45.772;12.852;2023-02-22T09:51:16;37.90;;;31.13;;
8488;SDS011;4281;45.772;12.852;2023-02-22T09:53:46;43.23;;;34.13;;
8488;SDS011;4281;45.772;12.852;2023-02-22T09:56:17;43.33;;;33.80;;
8488;SDS011;4281;45.772;12.852;2023-02-22T09:58:46;41.37;;;32.87;;
8488;SDS011;4281;45.772;12.852;2023-02-22T10:01:21;42.63;;;33.03;;
8488;SDS011;4281;45.772;12.852;2023-02-22T10:03:55;42.23;;;34.83;;
8488;SDS011;4281;45.772;12.852;2023-02-22T10:06:26;42.20;;;33.90;;
8488;SDS011;4281;45.772;12.852;2023-02-22T10:08:56;42.17;;;33.87;;
8488;SDS011;4281;45.772;12.852;2023-02-22T10:11:33;41.27;;;33.73;;
8488;SDS011;4281;45.772;12.852;2023-02-22T10:14:08;41.70;;;35.47;;
8488;SDS011;4281;45.772;12.852;2023-02-22T10:17:13;42.97;;;35.03;;
8488;SDS011;4281;45.772;12.852;2023-02-22T10:19:46;45.37;;;36.90;;
8488;SDS011;4281;45.772;12.852;2023-02-22T10:22:24;43.33;;;35.30;;
8488;SDS011;4281;45.772;12.852;2023-02-22T10:25:10;43.33;;;35.20;;
8488;SDS011;4281;45.772;12.852;2023-02-22T10:27:41;43.40;;;35.43;;
8488;SDS011;4281;45.772;12.852;2023-02-22T10:30:14;44.00;;;35.93;;
8488;SDS011;4281;45.772;12.852;2023-02-22T10:32:56;43.37;;;34.77;;
8488;SDS011;4281;45.772;12.852;2023-02-22T10:35:28;44.80;;;35.40;;
8488;SDS011;4281;45.772;12.852;2023-02-22T10:37:58;45.93;;;37.03;;
8488;SDS011;4281;45.772;12.852;2023-02-22T10:40:30;46.93;;;37.17;;
8488;SDS011;4281;45.772;12.852;2023-02-22T10:43:02;46.07;;;37.73;;
8488;SDS011;4281;45.772;12.852;2023-02-22T10:45:31;43.47;;;36.77;;
8488;SDS011;4281;45.772;12.852;2023-02-22T10:48:04;46.53;;;36.93;;
8488;SDS011;4281;45.772;12.852;2023-02-22T10:50:37;46.30;;;37.87;;
8488;SDS011;4281;45.772;12.852;2023-02-22T10:53:06;45.80;;;37.13;;
8488;SDS011;4281;45.772;12.852;2023-02-22T10:55:34;43.93;;;37.10;;
8488;SDS011;4281;45.772;12.852;2023-02-22T10:58:04;44.77;;;37.20;;
8488;SDS011;4281;45.772;12.852;2023-02-22T11:00:33;46.60;;;36.63;;
8488;SDS011;4281;45.772;12.852;2023-02-22T11:03:04;45.20;;;36.93;;
8488;SDS011;4281;45.772;12.852;2023-02-22T11:05:41;43.97;;;36.20;;
8488;SDS011;4281;45.772;12.852;2023-02-22T11:08:13;42.17;;;33.97;;
8488;SDS011;4281;45.772;12.852;2023-02-22T11:10:42;46.30;;;37.27;;
8488;SDS011;4281;45.772;12.852;2023-02-22T11:13:17;47.83;;;38.33;;
8488;SDS011;4281;45.772;12.852;2023-02-22T11:15:51;46.37;;;37.50;;
8488;SDS011;4281;45.772;12.852;2023-02-22T11:18:25;45.70;;;36.43;;
8488;SDS011;4281;45.772;12.852;2023-02-22T11:20:58;44.87;;;35.77;;
8488;SDS011;4281;45.772;12.852;2023-02-22T11:23:27;41.27;;;33.50;;
8488;SDS011;4281;45.772;12.852;2023-02-22T11:26:02;45.37;;;36.10;;
8488;SDS011;4281;45.772;12.852;2023-02-22T11:28:33;44.73;;;36.27;;
8488;SDS011;4281;45.772;12.852;2023-02-22T11:31:09;49.90;;;37.33;;
8488;SDS011;4281;45.772;12.852;2023-02-22T11:33:45;47.47;;;36.63;;
8488;SDS011;4281;45.772;12.852;2023-02-22T11:36:32;41.20;;;34.40;;
8488;SDS011;4281;45.772;12.852;2023-02-22T11:39:03;46.30;;;35.67;;
8488;SDS011;4281;45.772;12.852;2023-02-22T11:41:36;43.33;;;36.23;;
8488;SDS011;4281;45.772;12.852;2023-02-22T11:44:11;40.00;;;33.90;;
8488;SDS011;4281;45.772;12.852;2023-02-22T11:46:46;42.63;;;34.70;;
8488;SDS011;4281;45.772;12.852;2023-02-22T11:49:16;42.67;;;34.07;;
8488;SDS011;4281;45.772;12.852;2023-02-22T11:51:52;44.73;;;35.57;;
8488;SDS011;4281;45.772;12.852;2023-02-22T11:54:34;44.13;;;35.60;;
8488;SDS011;4281;45.772;12.852;2023-02-22T11:57:12;45.50;;;36.83;;
8488;SDS011;4281;45.772;12.852;2023-02-22T11:59:51;45.37;;;35.67;;
8488;SDS011;4281;45.772;12.852;2023-02-22T12:02:41;46.03;;;37.03;;
8488;SDS011;4281;45.772;12.852;2023-02-22T12:05:29;44.70;;;35.10;;
8488;SDS011;4281;45.772;12.852;2023-02-22T12:08:08;44.57;;;35.87;;
8488;SDS011;4281;45.772;12.852;2023-02-22T12:10:48;42.40;;;34.67;;
8488;SDS011;4281;45.772;12.852;2023-02-22T12:13:24;43.07;;;35.43;;
8488;SDS011;4281;45.772;12.852;2023-02-22T12:15:59;42.10;;;33.97;;
8488;SDS011;4281;45.772;12.852;2023-02-22T12:18:36;44.23;;;35.67;;
8488;SDS011;4281;45.772;12.852;2023-02-22T12:21:10;41.57;;;32.87;;
8488;SDS011;4281;45.772;12.852;2023-02-22T12:23:42;43.63;;;35.17;;
8488;SDS011;4281;45.772;12.852;2023-02-22T12:26:13;44.93;;;35.67;;
8488;SDS011;4281;45.772;12.852;2023-02-22T12:28:46;43.80;;;34.97;;
8488;SDS011;4281;45.772;12.852;2023-02-22T12:31:19;42.20;;;34.70;;
8488;SDS011;4281;45.772;12.852;2023-02-22T12:33:51;45.33;;;36.50;;
8488;SDS011;4281;45.772;12.852;2023-02-22T12:36:24;42.70;;;35.17;;
8488;SDS011;4281;45.772;12.852;2023-02-22T12:38:59;40.17;;;33.83;;
8488;SDS011;4281;45.772;12.852;2023-02-22T12:41:33;41.60;;;34.00;;
8488;SDS011;4281;45.772;12.852;2023-02-22T12:44:05;44.20;;;36.57;;
8488;SDS011;4281;45.772;12.852;2023-02-22T12:49:13;43.97;;;35.23;;
8488;SDS011;4281;45.772;12.852;2023-02-22T12:51:47;45.70;;;36.53;;
8488;SDS011;4281;45.772;12.852;2023-02-22T12:54:20;44.97;;;36.53;;
8488;SDS011;4281;45.772;12.852;2023-02-22T12:56:52;47.90;;;38.73;;
8488;SDS011;4281;45.772;12.852;2023-02-22T12:59:24;45.37;;;37.87;;
8488;SDS011;4281;45.772;12.852;2023-02-22T13:01:57;45.60;;;38.00;;
8488;SDS011;4281;45.772;12.852;2023-02-22T13:04:27;48.37;;;39.97;;
8488;SDS011;4281;45.772;12.852;2023-02-22T13:07:00;48.07;;;39.13;;
8488;SDS011;4281;45.772;12.852;2023-02-22T13:09:47;48.17;;;38.50;;
8488;SDS011;4281;45.772;12.852;2023-02-22T13:12:23;46.67;;;38.23;;
8488;SDS011;4281;45.772;12.852;2023-02-22T13:14:57;47.47;;;35.97;;
8488;SDS011;4281;45.772;12.852;2023-02-22T13:17:31;46.10;;;37.03;;
8488;SDS011;4281;45.772;12.852;2023-02-22T13:20:06;46.50;;;38.40;;
8488;SDS011;4281;45.772;12.852;2023-02-22T13:22:39;47.70;;;37.93;;
8488;SDS011;4281;45.772;12.852;2023-02-22T13:25:12;45.63;;;35.63;;
8488;SDS011;4281;45.772;12.852;2023-02-22T13:27:42;44.67;;;35.90;;
8488;SDS011;4281;45.772;12.852;2023-02-22T13:30:14;44.47;;;36.97;;
8488;SDS011;4281;45.772;12.852;2023-02-22T13:32:49;45.97;;;36.47;;
8488;SDS011;4281;45.772;12.852;2023-02-22T13:35:37;42.50;;;35.03;;
8488;SDS011;4281;45.772;12.852;2023-02-22T13:41:21;43.53;;;34.70;;
8488;SDS011;4281;45.772;12.852;2023-02-22T13:44:01;42.93;;;34.47;;
8488;SDS011;4281;45.772;12.852;2023-02-22T13:49:42;42.27;;;35.10;;
8488;SDS011;4281;45.772;12.852;2023-02-22T13:52:16;44.73;;;35.37;;
8488;SDS011;4281;45.772;12.852;2023-02-22T13:54:48;42.57;;;34.60;;
8488;SDS011;4281;45.772;12.852;2023-02-22T13:57:21;43.43;;;35.90;;
8488;SDS011;4281;45.772;12.852;2023-02-22T14:02:55;42.60;;;35.70;;
8488;SDS011;4281;45.772;12.852;2023-02-22T14:14:23;42.73;;;34.53;;
8488;SDS011;4281;45.772;12.852;2023-02-22T14:19:58;43.77;;;36.60;;
8488;SDS011;4281;45.772;12.852;2023-02-22T14:22:40;45.63;;;36.53;;
8488;SDS011;4281;45.772;12.852;2023-02-22T14:31:10;45.33;;;37.40;;
8488;SDS011;4281;45.772;12.852;2023-02-22T14:34:00;43.07;;;35.03;;
8488;SDS011;4281;45.772;12.852;2023-02-22T14:36:32;44.50;;;35.70;;
8488;SDS011;4281;45.772;12.852;2023-02-22T14:39:04;44.83;;;36.47;;
8488;SDS011;4281;45.772;12.852;2023-02-22T14:41:35;43.80;;;36.27;;
8488;SDS011;4281;45.772;12.852;2023-02-22T14:44:04;44.20;;;35.83;;
8488;SDS011;4281;45.772;12.852;2023-02-22T14:46:39;42.67;;;35.07;;
8488;SDS011;4281;45.772;12.852;2023-02-22T14:49:10;42.47;;;35.43;;
8488;SDS011;4281;45.772;12.852;2023-02-22T14:51:48;42.13;;;34.50;;
8488;SDS011;4281;45.772;12.852;2023-02-22T14:54:23;42.40;;;33.17;;
8488;SDS011;4281;45.772;12.852;2023-02-22T14:56:56;41.63;;;34.13;;
8488;SDS011;4281;45.772;12.852;2023-02-22T14:59:43;42.53;;;35.13;;
8488;SDS011;4281;45.772;12.852;2023-02-22T15:02:18;41.70;;;34.90;;
8488;SDS011;4281;45.772;12.852;2023-02-22T15:04:51;42.10;;;33.80;;
8488;SDS011;4281;45.772;12.852;2023-02-22T15:07:20;41.53;;;34.10;;
8488;SDS011;4281;45.772;12.852;2023-02-22T15:10:05;40.97;;;32.30;;
8488;SDS011;4281;45.772;12.852;2023-02-22T15:12:49;41.70;;;33.50;;
8488;SDS011;4281;45.772;12.852;2023-02-22T15:15:19;43.33;;;34.20;;
8488;SDS011;4281;45.772;12.852;2023-02-22T15:17:52;44.97;;;34.70;;
8488;SDS011;4281;45.772;12.852;2023-02-22T15:20:21;41.07;;;33.83;;
8488;SDS011;4281;45.772;12.852;2023-02-22T15:22:50;41.00;;;33.93;;
8488;SDS011;4281;45.772;12.852;2023-02-22T15:25:22;42.73;;;33.77;;
8488;SDS011;4281;45.772;12.852;2023-02-22T15:27:51;41.23;;;33.47;;
8488;SDS011;4281;45.772;12.852;2023-02-22T15:30:21;42.60;;;34.43;;
8488;SDS011;4281;45.772;12.852;2023-02-22T15:32:53;43.07;;;35.10;;
8488;SDS011;4281;45.772;12.852;2023-02-22T15:35:30;41.50;;;33.70;;